Time;durP1;ratioP1;P1;durP2;ratioP2;P2;SDS_P1;SDS_P2;PMS_P1;PMS_P2;Temp;Humidity;BMP_temperature;BMP_pressure;BME280_temperature;BME280_humidity;BME280_pressure;Samples;Min_cycle;Max_cycle;Signal;HPM_P1;HPM_P2
2021/05/14 00:00:22;;;;;;;6.83;6.00;;;10.60;99.90;;;;;;5055099;28;20254;-49
2021/05/14 00:02:47;;;;;;;6.83;6.03;;;10.50;99.90;;;;;;5055189;28;20218;-52
2021/05/14 00:05:13;;;;;;;6.57;5.70;;;10.60;99.90;;;;;;5055047;28;20175;-53
2021/05/14 00:07:39;;;;;;;6.60;6.00;;;10.50;99.90;;;;;;5055111;28;20198;-53
2021/05/14 00:10:06;;;;;;;6.40;5.80;;;10.50;99.90;;;;;;5054859;28;20171;-50
2021/05/14 00:12:32;;;;;;;6.40;5.77;;;10.40;99.90;;;;;;5054790;28;20253;-54
2021/05/14 00:14:58;;;;;;;6.70;6.00;;;10.40;99.90;;;;;;5054534;28;20627;-49
2021/05/14 00:17:23;;;;;;;6.30;5.70;;;10.40;99.90;;;;;;5061754;28;20198;-49
2021/05/14 00:19:49;;;;;;;6.20;5.60;;;10.40;99.90;;;;;;5073698;28;20275;-52
2021/05/14 00:22:14;;;;;;;6.33;5.73;;;10.30;99.90;;;;;;5073727;28;20238;-53
2021/05/14 00:24:40;;;;;;;6.43;5.80;;;10.30;99.90;;;;;;5073835;28;20214;-49
2021/05/14 00:27:05;;;;;;;7.33;6.63;;;10.30;99.90;;;;;;5074404;28;20232;-46
2021/05/14 00:29:31;;;;;;;6.17;5.43;;;10.30;99.90;;;;;;5074655;28;20175;-48
2021/05/14 00:31:56;;;;;;;6.20;5.60;;;10.40;99.90;;;;;;5074436;28;20185;-49
2021/05/14 00:34:22;;;;;;;6.47;5.53;;;10.40;99.90;;;;;;5073631;28;20187;-47
2021/05/14 00:36:48;;;;;;;7.50;6.00;;;10.50;99.90;;;;;;5073106;28;20206;-50
2021/05/14 00:39:14;;;;;;;6.20;5.60;;;10.50;99.90;;;;;;5072651;28;20146;-56
2021/05/14 00:41:40;;;;;;;6.30;5.30;;;10.60;99.90;;;;;;5072547;28;20185;-54
2021/05/14 00:44:24;;;;;;;6.23;5.57;;;10.50;99.90;;;;;;5073247;28;20213;-49
2021/05/14 00:46:49;;;;;;;6.33;5.63;;;10.50;99.90;;;;;;5073603;28;20201;-48
2021/05/14 00:49:15;;;;;;;6.00;5.40;;;10.40;99.90;;;;;;5073509;28;20174;-49
2021/05/14 00:51:41;;;;;;;5.97;5.47;;;10.50;99.90;;;;;;5073577;28;20198;-51
2021/05/14 00:54:07;;;;;;;5.97;5.33;;;10.50;99.90;;;;;;5074043;28;20518;-55
2021/05/14 00:56:33;;;;;;;5.07;4.67;;;10.40;99.90;;;;;;5074100;28;20681;-49
2021/05/14 00:58:59;;;;;;;5.60;4.90;;;10.40;99.90;;;;;;5074211;28;20189;-55
2021/05/14 01:01:24;;;;;;;5.40;4.90;;;10.40;99.90;;;;;;5073900;28;20238;-48
2021/05/14 01:03:50;;;;;;;5.37;4.87;;;10.30;99.90;;;;;;5073994;28;20206;-50
2021/05/14 01:06:15;;;;;;;5.00;4.50;;;10.40;99.90;;;;;;5073826;28;20235;-47
2021/05/14 01:08:41;;;;;;;5.20;4.70;;;10.40;99.90;;;;;;5074208;28;20171;-49
2021/05/14 01:11:06;;;;;;;5.23;4.70;;;10.40;99.90;;;;;;5073996;28;20189;-50
2021/05/14 01:13:33;;;;;;;4.67;4.27;;;10.40;99.90;;;;;;5073753;28;20332;-49
2021/05/14 01:15:58;;;;;;;4.87;4.47;;;10.40;99.90;;;;;;5073682;28;20217;-48
2021/05/14 01:18:24;;;;;;;4.80;4.40;;;10.50;99.90;;;;;;5058356;28;20191;-50
2021/05/14 01:20:49;;;;;;;4.97;4.53;;;10.50;99.90;;;;;;5053833;28;20575;-48
2021/05/14 01:23:15;;;;;;;4.40;4.00;;;10.50;99.90;;;;;;5053690;28;20211;-46
2021/05/14 01:25:41;;;;;;;5.43;4.93;;;10.50;99.90;;;;;;5053571;28;20175;-50
2021/05/14 01:28:06;;;;;;;4.90;4.50;;;10.60;99.90;;;;;;5053502;28;20221;-55
2021/05/14 01:30:32;;;;;;;4.83;4.43;;;10.50;99.90;;;;;;5053875;28;20175;-55
2021/05/14 01:32:57;;;;;;;5.00;4.50;;;10.50;99.90;;;;;;5053713;28;20233;-54
2021/05/14 01:35:23;;;;;;;5.03;4.40;;;10.50;99.90;;;;;;5053397;28;20266;-49
2021/05/14 01:37:49;;;;;;;4.90;4.50;;;10.50;99.90;;;;;;5053445;28;20257;-46
2021/05/14 01:40:14;;;;;;;6.00;4.53;;;10.50;99.90;;;;;;5053486;28;20179;-49
2021/05/14 01:42:45;;;;;;;4.87;4.40;;;10.40;99.90;;;;;;5053145;28;20203;-48
2021/05/14 01:45:11;;;;;;;5.07;4.67;;;10.50;99.90;;;;;;5053335;28;20175;-50
2021/05/14 01:47:37;;;;;;;4.87;4.47;;;10.50;99.90;;;;;;5053242;28;20201;-54
2021/05/14 01:50:03;;;;;;;4.93;4.53;;;10.60;99.90;;;;;;5053549;28;20258;-48
2021/05/14 01:52:29;;;;;;;4.70;4.27;;;10.60;99.90;;;;;;5053371;28;20179;-48
2021/05/14 01:54:54;;;;;;;5.30;4.80;;;10.70;99.90;;;;;;5053246;28;20224;-52
2021/05/14 01:57:20;;;;;;;4.73;4.23;;;10.80;99.90;;;;;;5035320;28;20293;-51
2021/05/14 01:59:45;;;;;;;4.77;4.27;;;10.80;99.90;;;;;;5053400;28;20654;-49
2021/05/14 02:02:11;;;;;;;5.00;4.20;;;10.80;99.90;;;;;;5053400;28;20289;-52
2021/05/14 02:04:36;;;;;;;4.47;4.07;;;10.90;99.90;;;;;;5053847;28;20523;-54
2021/05/14 02:07:02;;;;;;;4.50;4.10;;;11.10;99.90;;;;;;5035373;28;20547;-55
2021/05/14 02:09:28;;;;;;;5.60;5.10;;;11.10;99.90;;;;;;5053406;28;20627;-50
2021/05/14 02:11:53;;;;;;;4.43;4.13;;;11.10;99.90;;;;;;5053180;28;20528;-49
2021/05/14 02:14:19;;;;;;;4.50;4.13;;;11.10;99.90;;;;;;5053123;28;20167;-51
2021/05/14 02:16:44;;;;;;;4.20;3.87;;;11.20;99.90;;;;;;5054567;28;20191;-49
2021/05/14 02:19:10;;;;;;;3.80;3.50;;;11.30;99.90;;;;;;5073786;28;20182;-50
2021/05/14 02:21:35;;;;;;;4.23;3.40;;;11.40;99.90;;;;;;5073155;28;20570;-53
2021/05/14 02:24:01;;;;;;;3.60;3.30;;;11.30;99.90;;;;;;5073261;28;20205;-47
2021/05/14 02:26:26;;;;;;;4.40;4.00;;;11.10;99.90;;;;;;5073073;28;20225;-49
2021/05/14 02:28:52;;;;;;;5.50;3.73;;;11.00;99.90;;;;;;5073272;28;20186;-50
2021/05/14 02:31:18;;;;;;;6.47;4.80;;;10.90;99.90;;;;;;5072981;28;20183;-46
2021/05/14 02:33:44;;;;;;;4.60;4.20;;;10.90;99.90;;;;;;5073049;28;20261;-49
2021/05/14 02:36:09;;;;;;;5.27;4.43;;;10.90;99.90;;;;;;5073080;28;20256;-53
2021/05/14 02:38:35;;;;;;;5.33;4.83;;;10.90;99.90;;;;;;5072862;28;20198;-51
2021/05/14 02:41:00;;;;;;;6.17;4.80;;;10.80;99.90;;;;;;5072562;28;20182;-54
2021/05/14 02:43:26;;;;;;;4.60;4.20;;;10.70;99.90;;;;;;5072881;28;20235;-48
2021/05/14 02:45:51;;;;;;;5.27;4.77;;;10.70;99.90;;;;;;5073910;28;20584;-48
2021/05/14 02:48:20;;;;;;;5.00;4.60;;;10.60;99.90;;;;;;5076475;28;20170;-50
2021/05/14 02:50:46;;;;;;;6.33;4.60;;;10.60;99.90;;;;;;5076722;28;20171;-47
2021/05/14 02:53:11;;;;;;;5.33;4.83;;;10.60;99.90;;;;;;5076202;28;20182;-46
2021/05/14 02:55:37;;;;;;;5.00;4.57;;;10.60;99.90;;;;;;5076406;28;20182;-49
2021/05/14 02:58:02;;;;;;;7.00;4.17;;;10.60;99.90;;;;;;5076355;28;20640;-52
2021/05/14 03:00:28;;;;;;;5.17;4.67;;;10.60;99.90;;;;;;5076122;28;20654;-48
2021/05/14 03:02:53;;;;;;;5.83;4.40;;;10.70;99.90;;;;;;5076109;28;20237;-48
2021/05/14 03:05:19;;;;;;;4.37;3.97;;;10.70;99.90;;;;;;5076346;28;20265;-46
2021/05/14 03:07:45;;;;;;;4.40;3.83;;;10.60;99.90;;;;;;5076021;28;20281;-46
2021/05/14 03:10:11;;;;;;;4.47;4.07;;;10.50;99.90;;;;;;5075935;28;20198;-45
2021/05/14 03:12:37;;;;;;;4.03;3.73;;;10.60;99.90;;;;;;5076065;28;20179;-51
2021/05/14 03:15:04;;;;;;;4.73;3.80;;;10.60;99.90;;;;;;5075789;28;20181;-50
2021/05/14 03:17:30;;;;;;;4.17;3.83;;;10.60;99.90;;;;;;5067911;28;20676;-46
2021/05/14 03:19:55;;;;;;;4.03;3.73;;;10.60;99.90;;;;;;5055870;28;20182;-48
2021/05/14 03:22:21;;;;;;;4.27;3.87;;;10.50;99.90;;;;;;5055722;28;20685;-47
2021/05/14 03:24:46;;;;;;;4.47;4.07;;;10.50;99.90;;;;;;5055666;28;20567;-46
2021/05/14 03:27:12;;;;;;;3.80;3.50;;;10.50;99.90;;;;;;5056172;28;20199;-52
2021/05/14 03:29:37;;;;;;;4.33;3.93;;;10.50;99.90;;;;;;5055465;28;20504;-55
2021/05/14 03:32:04;;;;;;;6.33;4.07;;;10.50;99.90;;;;;;5055462;28;20179;-54
2021/05/14 03:34:29;;;;;;;4.63;3.93;;;10.50;99.90;;;;;;5055584;28;20173;-49
2021/05/14 03:36:55;;;;;;;4.23;3.93;;;10.50;99.90;;;;;;5055550;28;20297;-48
2021/05/14 03:39:22;;;;;;;4.17;3.77;;;10.50;99.90;;;;;;5055624;28;20206;-46
2021/05/14 03:41:51;;;;;;;4.70;4.30;;;10.40;99.90;;;;;;5055497;28;20187;-53
2021/05/14 03:44:17;;;;;;;4.23;3.83;;;10.40;99.90;;;;;;5055434;28;20211;-52
2021/05/14 03:46:42;;;;;;;4.50;4.10;;;10.40;99.90;;;;;;5037297;28;20195;-49
2021/05/14 03:49:08;;;;;;;4.70;4.10;;;10.50;99.90;;;;;;5055853;28;20175;-50
2021/05/14 03:51:35;;;;;;;4.37;3.97;;;10.60;99.90;;;;;;5055144;28;20171;-47
2021/05/14 03:54:02;;;;;;;4.30;3.90;;;10.60;99.90;;;;;;5055575;28;20167;-46
2021/05/14 03:56:27;;;;;;;4.13;3.73;;;10.60;99.90;;;;;;5054849;28;20203;-47
2021/05/14 03:58:53;;;;;;;4.43;3.80;;;10.60;99.90;;;;;;5054313;28;20183;-49
2021/05/14 04:01:20;;;;;;;4.20;3.80;;;10.60;99.90;;;;;;5074967;28;20205;-52
2021/05/14 04:03:46;;;;;;;5.17;4.40;;;10.50;99.90;;;;;;5075322;28;20218;-51
2021/05/14 04:06:11;;;;;;;4.10;3.80;;;10.50;99.90;;;;;;5075116;28;20547;-50
2021/05/14 04:08:37;;;;;;;5.27;4.30;;;10.50;99.90;;;;;;5074885;28;20280;-47
2021/05/14 04:16:12;;;;;;;4.67;4.27;;;10.50;99.90;;;;;;5074647;28;20269;-49
2021/05/14 04:18:38;;;;;;;4.70;4.30;;;10.50;99.90;;;;;;5057482;28;20179;-49
2021/05/14 04:21:06;;;;;;;4.83;4.43;;;10.40;99.90;;;;;;5054473;28;20208;-54
2021/05/14 04:23:32;;;;;;;4.93;4.43;;;10.40;99.90;;;;;;5054648;28;20222;-54
2021/05/14 04:25:57;;;;;;;4.50;4.10;;;10.40;99.90;;;;;;5054647;28;20195;-49
2021/05/14 04:28:23;;;;;;;5.33;4.23;;;10.40;99.90;;;;;;5054805;28;20322;-47
2021/05/14 04:30:48;;;;;;;5.33;4.83;;;10.50;99.90;;;;;;5054511;28;20171;-49
2021/05/14 04:33:14;;;;;;;4.90;4.40;;;10.50;99.90;;;;;;5054466;28;20197;-51
2021/05/14 04:35:39;;;;;;;5.03;4.50;;;10.50;99.90;;;;;;5054488;28;20175;-48
2021/05/14 04:38:05;;;;;;;5.63;5.03;;;10.50;99.90;;;;;;5054371;28;20191;-46
2021/05/14 04:40:30;;;;;;;5.77;4.83;;;10.50;99.90;;;;;;5054391;28;20199;-55
2021/05/14 04:43:01;;;;;;;5.60;4.83;;;10.50;99.90;;;;;;5054092;28;20195;-48
2021/05/14 04:45:26;;;;;;;5.33;4.83;;;10.50;99.90;;;;;;5054242;28;20199;-49
2021/05/14 04:47:52;;;;;;;5.87;5.37;;;10.60;99.90;;;;;;5053947;28;20223;-51
2021/05/14 04:50:18;;;;;;;6.43;5.30;;;10.60;99.90;;;;;;5054516;28;20228;-49
2021/05/14 04:52:44;;;;;;;6.47;4.90;;;10.60;99.90;;;;;;5054499;28;20253;-46
2021/05/14 04:55:11;;;;;;;5.47;4.93;;;10.60;99.90;;;;;;5054496;28;20171;-54
2021/05/14 04:57:37;;;;;;;5.20;4.80;;;10.60;99.90;;;;;;5054322;28;20187;-47
2021/05/14 05:00:04;;;;;;;5.13;4.63;;;10.60;99.90;;;;;;5054272;28;20235;-47
2021/05/14 05:02:31;;;;;;;5.33;4.83;;;10.50;99.90;;;;;;5053544;28;20199;-46
2021/05/14 05:04:58;;;;;;;4.93;4.50;;;10.50;99.90;;;;;;5054234;28;20175;-46
2021/05/14 05:07:25;;;;;;;5.17;4.70;;;10.50;99.90;;;;;;5053833;28;20278;-45
2021/05/14 05:09:50;;;;;;;4.90;4.40;;;10.60;99.90;;;;;;5053504;28;20500;-50
2021/05/14 05:12:16;;;;;;;4.80;4.30;;;10.70;99.90;;;;;;5053600;28;20186;-52
2021/05/14 05:14:43;;;;;;;4.27;3.97;;;10.70;99.90;;;;;;5053792;28;20171;-48
2021/05/14 05:17:09;;;;;;;4.37;3.97;;;10.70;99.90;;;;;;5053957;28;20195;-48
2021/05/14 05:19:35;;;;;;;4.50;4.10;;;10.70;99.90;;;;;;5053656;28;20198;-50
2021/05/14 05:22:00;;;;;;;4.43;4.03;;;10.60;99.90;;;;;;5053494;28;20182;-53
2021/05/14 05:24:26;;;;;;;4.43;4.00;;;10.70;99.90;;;;;;5053822;28;20623;-53
2021/05/14 05:26:52;;;;;;;4.10;3.80;;;10.60;99.90;;;;;;5053712;28;20273;-48
2021/05/14 05:29:17;;;;;;;3.90;3.50;;;10.70;99.90;;;;;;5070638;28;20211;-47
2021/05/14 05:31:43;;;;;;;5.47;3.73;;;10.70;99.90;;;;;;5073529;28;20174;-46
2021/05/14 05:34:09;;;;;;;4.57;3.73;;;10.70;99.90;;;;;;5073465;28;20178;-47
2021/05/14 05:36:34;;;;;;;4.60;3.80;;;10.70;99.90;;;;;;5067740;28;20238;-46
2021/05/14 05:39:00;;;;;;;3.67;3.37;;;10.80;99.90;;;;;;5065113;28;20182;-48
2021/05/14 05:41:25;;;;;;;3.60;3.30;;;10.90;99.90;;;;;;5063191;28;20638;-49
2021/05/14 05:43:51;;;;;;;4.00;3.23;;;11.00;99.90;;;;;;5072772;28;20202;-52
2021/05/14 05:46:17;;;;;;;4.10;3.43;;;11.10;99.90;;;;;;5070766;28;20210;-49
2021/05/14 05:48:45;;;;;;;3.50;3.10;;;11.20;99.90;;;;;;5053393;28;20684;-47
2021/05/14 05:51:12;;;;;;;2.87;2.67;;;11.20;99.90;;;;;;5054074;28;20186;-48
2021/05/14 05:53:38;;;;;;;3.43;3.13;;;11.20;99.90;;;;;;5068039;28;20272;-48
2021/05/14 05:56:04;;;;;;;3.40;3.13;;;11.20;99.90;;;;;;5073447;28;20674;-51
2021/05/14 05:58:31;;;;;;;3.33;2.80;;;11.20;99.90;;;;;;5053669;28;20186;-52
2021/05/14 06:00:57;;;;;;;6.87;3.30;;;11.20;99.90;;;;;;5052922;28;20546;-48
2021/05/14 06:03:23;;;;;;;3.37;2.80;;;11.30;99.90;;;;;;5054614;28;20210;-50
2021/05/14 06:05:49;;;;;;;3.07;2.60;;;11.30;99.90;;;;;;5053200;28;20187;-48
2021/05/14 06:08:14;;;;;;;2.50;2.30;;;11.40;99.90;;;;;;5053151;28;20492;-46
2021/05/14 06:10:42;;;;;;;2.60;2.40;;;11.30;99.90;;;;;;5053261;28;20613;-48
2021/05/14 06:13:07;;;;;;;4.70;3.00;;;11.30;99.90;;;;;;5051492;28;20187;-46
2021/05/14 06:15:33;;;;;;;2.77;2.57;;;11.30;99.90;;;;;;5053066;28;20179;-49
2021/05/14 06:17:59;;;;;;;2.73;2.53;;;11.40;99.90;;;;;;5064989;28;20833;-48
2021/05/14 06:20:26;;;;;;;2.57;2.37;;;11.60;99.90;;;;;;5073910;28;20183;-48
2021/05/14 06:22:52;;;;;;;2.57;2.37;;;11.50;99.90;;;;;;5076894;28;20234;-49
2021/05/14 06:25:18;;;;;;;3.10;2.70;;;11.50;99.90;;;;;;5077318;28;20174;-46
2021/05/14 06:27:44;;;;;;;3.10;2.37;;;11.40;99.90;;;;;;5077023;28;20248;-48
2021/05/14 06:30:10;;;;;;;2.50;2.30;;;11.40;99.90;;;;;;5076876;28;20190;-46
2021/05/14 06:32:36;;;;;;;2.33;2.13;;;11.30;99.90;;;;;;5076279;28;20183;-49
2021/05/14 06:35:02;;;;;;;2.50;1.83;;;11.30;99.90;;;;;;5076000;28;20193;-53
2021/05/14 06:37:30;;;;;;;2.20;2.00;;;11.30;99.90;;;;;;5076699;28;20221;-51
2021/05/14 06:39:56;;;;;;;2.70;2.03;;;11.30;99.90;;;;;;5076074;28;20261;-48
2021/05/14 06:42:21;;;;;;;2.20;2.07;;;11.40;99.90;;;;;;5076272;28;20237;-47
2021/05/14 06:44:48;;;;;;;3.53;1.90;;;11.40;99.90;;;;;;5076810;28;20175;-48
2021/05/14 06:47:13;;;;;;;3.33;2.27;;;11.40;99.90;;;;;;5076558;28;20236;-48
2021/05/14 06:49:39;;;;;;;2.33;2.13;;;11.50;99.90;;;;;;5076712;28;20589;-46
2021/05/14 06:52:04;;;;;;;2.30;2.10;;;11.60;99.90;;;;;;5076359;28;20179;-49
2021/05/14 06:54:30;;;;;;;2.20;2.00;;;11.80;99.90;;;;;;5076336;28;20175;-52
2021/05/14 06:56:56;;;;;;;2.10;2.00;;;11.90;99.90;;;;;;5076590;28;20198;-49
2021/05/14 06:59:21;;;;;;;1.90;1.80;;;12.00;99.90;;;;;;5076312;28;20257;-46
2021/05/14 07:01:47;;;;;;;3.17;1.87;;;12.00;99.90;;;;;;5076449;28;20170;-49
2021/05/14 07:04:12;;;;;;;2.10;1.90;;;12.10;99.90;;;;;;5076316;28;20206;-52
2021/05/14 07:06:38;;;;;;;1.80;1.70;;;12.20;99.90;;;;;;5076427;28;20195;-47
2021/05/14 07:09:04;;;;;;;1.70;1.60;;;12.40;99.90;;;;;;5076506;28;20178;-46
2021/05/14 07:11:30;;;;;;;1.87;1.50;;;12.40;99.90;;;;;;5076227;28;20569;-51
2021/05/14 07:13:56;;;;;;;1.87;1.70;;;12.40;99.90;;;;;;5076014;28;20607;-49
2021/05/14 07:16:21;;;;;;;2.83;1.80;;;12.40;99.90;;;;;;5075899;28;20220;-48
2021/05/14 07:18:47;;;;;;;2.17;1.67;;;12.40;99.90;;;;;;5038946;28;20636;-48
2021/05/14 07:21:12;;;;;;;1.83;1.73;;;12.50;99.90;;;;;;5055837;28;20179;-46
2021/05/14 07:23:38;;;;;;;2.13;1.90;;;12.40;99.90;;;;;;5055829;28;20199;-51
2021/05/14 07:26:04;;;;;;;3.80;2.00;;;12.50;99.90;;;;;;5055675;28;20206;-48
2021/05/14 07:28:29;;;;;;;2.13;1.60;;;12.50;99.90;;;;;;5056316;28;20176;-50
2021/05/14 07:30:55;;;;;;;1.67;1.57;;;12.60;99.90;;;;;;5055581;28;20183;-48
2021/05/14 07:33:21;;;;;;;1.40;1.30;;;12.90;99.90;;;;;;5055608;28;20184;-47
2021/05/14 07:35:47;;;;;;;3.07;1.70;;;13.10;99.90;;;;;;5056160;28;20233;-46
2021/05/14 07:38:12;;;;;;;2.97;1.80;;;13.10;99.90;;;;;;5055272;28;20188;-46
2021/05/14 07:40:39;;;;;;;2.63;2.10;;;12.90;99.90;;;;;;5055892;28;20678;-46
2021/05/14 07:43:05;;;;;;;2.10;1.90;;;12.80;99.90;;;;;;5055116;28;20249;-46
2021/05/14 07:45:31;;;;;;;1.90;1.80;;;12.70;99.90;;;;;;5055296;28;20155;-49
2021/05/14 07:47:56;;;;;;;2.47;1.90;;;12.70;99.90;;;;;;5055777;28;20237;-50
2021/05/14 07:50:22;;;;;;;3.30;1.70;;;12.70;99.90;;;;;;5055786;28;20173;-47
2021/05/14 07:52:49;;;;;;;3.60;1.60;;;12.80;99.90;;;;;;5037155;28;20181;-51
2021/05/14 07:55:14;;;;;;;2.10;1.90;;;12.90;99.90;;;;;;5055602;28;20205;-46
2021/05/14 07:57:40;;;;;;;1.90;1.40;;;13.10;99.90;;;;;;5055685;28;20585;-47
2021/05/14 08:00:06;;;;;;;3.20;1.73;;;13.30;99.90;;;;;;5055001;28;20173;-45
2021/05/14 08:02:32;;;;;;;2.67;1.80;;;13.40;99.90;;;;;;5055270;28;20549;-52
2021/05/14 08:04:57;;;;;;;3.40;1.60;;;13.40;99.90;;;;;;5055517;28;20172;-47
2021/05/14 08:07:23;;;;;;;1.80;1.70;;;13.50;99.90;;;;;;5055051;28;20220;-50
2021/05/14 08:09:48;;;;;;;2.70;1.70;;;13.60;99.90;;;;;;5055373;28;20271;-46
2021/05/14 08:12:14;;;;;;;2.57;1.70;;;13.70;99.90;;;;;;5054872;28;20182;-46
2021/05/14 08:14:39;;;;;;;2.33;1.60;;;13.90;99.90;;;;;;5055204;28;20174;-49
2021/05/14 08:17:05;;;;;;;2.63;1.67;;;14.00;99.90;;;;;;5058973;28;20190;-52
2021/05/14 08:19:31;;;;;;;1.87;1.77;;;14.00;99.90;;;;;;5074900;28;20649;-55
2021/05/14 08:21:56;;;;;;;1.70;1.60;;;13.80;99.90;;;;;;5074532;28;20171;-48
2021/05/14 08:24:22;;;;;;;3.17;1.67;;;13.70;99.90;;;;;;5074752;28;20301;-47
2021/05/14 08:26:48;;;;;;;2.20;1.70;;;13.80;99.90;;;;;;5075236;28;20190;-47
2021/05/14 08:29:13;;;;;;;3.80;1.57;;;13.80;99.90;;;;;;5074682;28;20252;-49
2021/05/14 08:31:40;;;;;;;2.77;1.73;;;14.00;99.90;;;;;;5074272;28;20527;-54
2021/05/14 08:34:10;;;;;;;2.70;1.50;;;14.00;99.90;;;;;;5057509;28;20189;-47
2021/05/14 08:36:35;;;;;;;2.53;1.70;;;14.00;99.90;;;;;;5054500;28;20215;-53
2021/05/14 08:39:02;;;;;;;1.87;1.33;;;14.20;99.90;;;;;;5055097;28;20592;-48
2021/05/14 08:41:27;;;;;;;1.10;1.10;;;14.40;99.90;;;;;;5054458;28;20244;-46
2021/05/14 08:43:54;;;;;;;1.53;1.20;;;14.40;99.90;;;;;;5053812;28;20566;-48
2021/05/14 08:46:23;;;;;;;1.53;1.33;;;14.30;99.90;;;;;;5054293;28;20274;-50
2021/05/14 08:48:51;;;;;;;1.40;1.30;;;14.20;99.90;;;;;;5054293;28;20171;-46
2021/05/14 08:51:19;;;;;;;1.47;1.37;;;14.10;99.90;;;;;;5054487;28;20174;-52
2021/05/14 08:53:46;;;;;;;1.37;1.20;;;14.00;99.90;;;;;;5054168;28;20185;-53
2021/05/14 08:56:11;;;;;;;2.67;1.50;;;14.00;99.90;;;;;;5054198;28;20210;-46
2021/05/14 08:58:38;;;;;;;1.20;1.10;;;14.00;99.90;;;;;;5054104;28;20268;-48
2021/05/14 09:01:04;;;;;;;2.50;1.00;;;14.00;99.90;;;;;;5053831;28;20175;-46
2021/05/14 09:03:29;;;;;;;1.50;1.20;;;14.00;99.90;;;;;;5053941;28;20202;-51
2021/05/14 09:05:55;;;;;;;1.50;1.30;;;14.20;99.90;;;;;;5054170;28;20193;-52
2021/05/14 09:08:26;;;;;;;1.47;1.30;;;14.40;99.90;;;;;;5054371;28;20197;-50
2021/05/14 09:10:51;;;;;;;4.77;1.90;;;14.60;99.90;;;;;;5053921;28;20170;-55
2021/05/14 09:13:17;;;;;;;2.93;1.30;;;14.70;99.90;;;;;;5054173;28;20258;-48
2021/05/14 09:15:44;;;;;;;1.77;1.23;;;14.70;99.90;;;;;;5053749;28;20249;-49
2021/05/14 09:18:16;;;;;;;1.57;1.23;;;14.80;99.90;;;;;;5066868;28;20587;-49
2021/05/14 09:20:46;;;;;;;1.73;1.50;;;14.90;99.90;;;;;;5074314;28;20200;-50
2021/05/14 09:23:21;;;;;;;2.00;1.23;;;14.80;99.90;;;;;;5073594;28;20218;-47
2021/05/14 09:25:50;;;;;;;1.57;1.20;;;14.90;99.90;;;;;;5073618;28;20162;-54
2021/05/14 09:28:22;;;;;;;1.57;1.37;;;14.80;99.90;;;;;;5073908;28;20178;-48
2021/05/14 09:31:04;;;;;;;2.57;1.33;;;14.80;99.90;;;;;;5073830;28;20202;-47
2021/05/14 09:33:29;;;;;;;2.60;1.10;;;14.90;99.90;;;;;;5073566;28;20239;-47
2021/05/14 09:35:59;;;;;;;0.90;0.90;;;15.00;99.90;;;;;;5055643;28;20549;-51
2021/05/14 09:38:25;;;;;;;1.13;1.03;;;14.80;99.90;;;;;;5073632;28;20201;-51
2021/05/14 09:40:51;;;;;;;1.00;0.90;;;14.70;99.90;;;;;;5073667;28;20162;-50
2021/05/14 09:43:17;;;;;;;2.73;1.10;;;14.50;99.90;;;;;;5073571;28;20193;-50
2021/05/14 09:45:43;;;;;;;2.00;1.00;;;14.40;99.90;;;;;;5073315;28;20174;-47
2021/05/14 09:48:16;;;;;;;1.57;1.20;;;14.30;99.90;;;;;;5073394;28;20192;-47
2021/05/14 09:50:48;;;;;;;1.30;1.00;;;14.30;99.90;;;;;;5073666;28;20183;-45
2021/05/14 09:53:16;;;;;;;1.10;1.00;;;14.40;99.90;;;;;;5073538;28;20184;-46
2021/05/14 09:56:14;;;;;;;1.50;0.93;;;14.40;99.90;;;;;;5076489;28;20185;-46
2021/05/14 09:58:31;;;;;;;0.87;0.80;;;14.50;99.90;;;;;;5076950;28;20182;-55
2021/05/14 10:00:58;;;;;;;2.07;1.07;;;14.60;99.90;;;;;;5076935;28;20238;-53
2021/05/14 10:03:25;;;;;;;0.97;0.93;;;14.90;99.90;;;;;;5077146;28;20638;-46
2021/05/14 10:05:55;;;;;;;0.80;0.80;;;14.90;99.90;;;;;;5077748;28;20312;-47
2021/05/14 10:08:23;;;;;;;1.50;1.27;;;15.00;99.90;;;;;;5077254;28;20635;-47
2021/05/14 10:10:50;;;;;;;1.90;1.10;;;14.80;99.90;;;;;;5077142;28;20170;-47
2021/05/14 10:13:16;;;;;;;1.83;0.97;;;14.70;99.90;;;;;;5077475;28;20182;-48
2021/05/14 10:15:41;;;;;;;1.73;1.20;;;14.70;99.90;;;;;;5077000;28;20186;-46
2021/05/14 10:18:16;;;;;;;1.10;1.00;;;14.90;99.90;;;;;;5064362;28;20187;-51
2021/05/14 10:20:42;;;;;;;2.63;1.10;;;14.90;99.90;;;;;;5068239;28;20280;-48
2021/05/14 10:23:09;;;;;;;1.60;0.90;;;14.90;99.90;;;;;;5076762;28;20291;-48
2021/05/14 10:25:38;;;;;;;1.30;1.03;;;15.10;99.90;;;;;;5092704;28;20182;-47
2021/05/14 10:28:10;;;;;;;2.57;1.00;;;15.50;99.90;;;;;;5097255;28;20177;-46
2021/05/14 10:31:06;;;;;;;1.80;1.00;;;15.80;99.90;;;;;;5096783;28;20174;-53
2021/05/14 10:33:49;;;;;;;1.67;1.10;;;15.90;99.90;;;;;;5097710;28;20269;-51
2021/05/14 10:36:21;;;;;;;0.97;0.90;;;16.50;99.90;;;;;;5096853;28;20582;-54
2021/05/14 10:39:09;;;;;;;0.70;0.70;;;16.30;99.90;;;;;;5097306;28;20186;-45
2021/05/14 10:41:54;;;;;;;1.47;1.00;;;16.30;99.90;;;;;;5078960;28;20177;-45
2021/05/14 10:44:46;;;;;;;2.87;0.60;;;16.20;99.90;;;;;;5097122;28;20204;-45
2021/05/14 10:47:21;;;;;;;1.30;1.00;;;16.20;99.90;;;;;;5096982;28;20193;-45
2021/05/14 10:49:49;;;;;;;1.03;0.70;;;16.20;99.90;;;;;;5096701;28;20162;-45
2021/05/14 10:52:14;;;;;;;1.50;0.80;;;16.10;99.90;;;;;;5096533;28;20516;-54
2021/05/14 10:54:40;;;;;;;0.87;0.60;;;16.00;99.90;;;;;;5078526;28;20170;-47
2021/05/14 10:57:06;;;;;;;1.60;0.90;;;16.00;99.90;;;;;;5096836;28;20186;-45
2021/05/14 10:59:35;;;;;;;1.10;1.00;;;16.20;99.90;;;;;;5096693;28;20193;-48
2021/05/14 11:02:22;;;;;;;1.73;0.87;;;16.30;99.90;;;;;;5096248;28;20175;-46
2021/05/14 11:04:48;;;;;;;0.93;0.70;;;16.40;99.90;;;;;;5082027;28;20194;-50
2021/05/14 11:07:33;;;;;;;2.00;0.60;;;16.70;99.90;;;;;;5094880;28;20212;-51
2021/05/14 11:10:27;;;;;;;0.60;0.60;;;16.50;99.90;;;;;;5096642;28;20162;-49
2021/05/14 11:12:53;;;;;;;1.37;0.70;;;16.40;99.90;;;;;;5053876;28;20199;-47
2021/05/14 11:15:19;;;;;;;1.00;0.90;;;16.40;99.90;;;;;;5073393;28;20202;-47
2021/05/14 11:18:06;;;;;;;1.10;0.70;;;16.40;99.90;;;;;;5071059;28;20186;-47
2021/05/14 11:20:45;;;;;;;0.77;0.67;;;16.40;99.90;;;;;;5076858;28;20168;-48
2021/05/14 11:23:29;;;;;;;0.53;0.53;;;16.60;99.90;;;;;;5073551;28;20212;-48
2021/05/14 11:25:55;;;;;;;2.83;1.23;;;16.70;99.90;;;;;;5068629;28;20244;-46
2021/05/14 11:28:36;;;;;;;2.30;0.80;;;17.00;99.90;;;;;;5076400;28;20170;-44
2021/05/14 11:31:02;;;;;;;0.50;0.50;;;17.00;99.90;;;;;;5070439;28;20242;-50
2021/05/14 11:33:28;;;;;;;1.50;0.80;;;17.30;99.90;;;;;;5073496;28;20260;-50
2021/05/14 11:35:53;;;;;;;0.87;0.50;;;17.50;99.90;;;;;;5072268;28;20178;-46
2021/05/14 11:38:19;;;;;;;0.50;0.50;;;17.70;99.90;;;;;;5076697;28;20193;-46
2021/05/14 11:40:47;;;;;;;1.90;0.70;;;17.70;99.90;;;;;;5081057;28;20191;-53
2021/05/14 11:43:13;;;;;;;1.53;0.50;;;18.00;99.90;;;;;;5077192;28;20198;-55
2021/05/14 11:45:44;;;;;;;0.87;0.70;;;17.90;99.90;;;;;;5085847;28;20690;-49
2021/05/14 11:48:10;;;;;;;0.93;0.67;;;17.90;99.90;;;;;;5080902;28;20166;-47
2021/05/14 11:50:39;;;;;;;0.77;0.60;;;17.70;99.90;;;;;;5091819;28;20735;-45
2021/05/14 11:53:07;;;;;;;0.67;0.57;;;17.40;99.90;;;;;;5080728;28;20188;-52
2021/05/14 11:55:38;;;;;;;0.57;0.57;;;17.40;99.90;;;;;;5085884;28;20183;-48
2021/05/14 11:58:05;;;;;;;1.93;0.50;;;17.50;99.90;;;;;;5089329;28;20203;-55
2021/05/14 12:00:35;;;;;;;3.00;0.50;;;17.60;99.90;;;;;;5078249;28;20633;-55
2021/05/14 12:03:03;;;;;;;0.50;0.50;;;17.60;99.90;;;;;;5089823;28;20654;-48
2021/05/14 12:05:28;;;;;;;0.77;0.70;;;17.70;99.90;;;;;;5081288;28;20538;-48
2021/05/14 12:08:08;;;;;;;0.77;0.60;;;17.70;99.90;;;;;;5088114;28;20182;-48
2021/05/14 12:10:34;;;;;;;0.57;0.50;;;17.60;99.90;;;;;;5087608;28;20219;-45
2021/05/14 12:12:59;;;;;;;0.80;0.60;;;17.60;99.90;;;;;;5078795;28;20178;-52
2021/05/14 12:15:26;;;;;;;1.50;0.60;;;17.70;99.90;;;;;;5094485;28;20182;-50
2021/05/14 12:17:58;;;;;;;0.53;0.50;;;17.80;99.90;;;;;;5082874;28;20191;-49
2021/05/14 12:20:28;;;;;;;1.43;0.50;;;17.80;99.90;;;;;;5088746;28;20185;-48
2021/05/14 12:22:58;;;;;;;0.90;0.60;;;17.70;99.90;;;;;;5092137;28;20194;-48
2021/05/14 12:25:27;;;;;;;0.50;0.50;;;17.60;99.90;;;;;;5091862;28;20166;-48
2021/05/14 12:27:53;;;;;;;0.93;0.50;;;17.60;99.90;;;;;;5092767;28;20205;-48
2021/05/14 12:30:19;;;;;;;0.57;0.57;;;17.70;99.90;;;;;;5092557;28;20170;-50
2021/05/14 12:32:56;;;;;;;1.13;0.70;;;18.00;99.90;;;;;;5092615;28;20239;-55
2021/05/14 12:35:22;;;;;;;1.60;0.70;;;18.10;99.90;;;;;;5092834;28;20185;-47
2021/05/14 12:37:54;;;;;;;0.50;0.50;;;18.30;99.90;;;;;;5093833;28;20214;-45
2021/05/14 12:40:37;;;;;;;0.60;0.40;;;18.60;99.90;;;;;;5110708;27;20516;-45
2021/05/14 12:43:04;;;;;;;1.03;0.60;;;18.80;99.90;;;;;;5111453;28;20187;-46
2021/05/14 12:45:30;;;;;;;2.03;0.60;;;18.90;99.90;;;;;;5110542;27;20188;-47
2021/05/14 12:47:56;;;;;;;0.50;0.50;;;18.40;99.70;;;;;;5111272;28;20556;-52
2021/05/14 12:50:25;;;;;;;0.60;0.60;;;18.30;99.90;;;;;;5111883;28;20161;-45
2021/05/14 12:52:51;;;;;;;0.50;0.50;;;18.20;99.90;;;;;;5111228;28;20165;-48